Time;durP1;ratioP1;P1;durP2;ratioP2;P2;SDS_P1;SDS_P2;PMS_P1;PMS_P2;Temp;Humidity;BMP_temperature;BMP_pressure;BME280_temperature;BME280_humidity;BME280_pressure;Samples;Min_cycle;Max_cycle;Signal;HPM_P1;HPM_P2
2021/08/24 00:01:55;;;;;;;34.73;26.75;;;;;;;16.76;87.59;98861.12;2172535;81;20940;-78
2021/08/24 00:04:56;;;;;;;33.78;24.65;;;;;;;16.74;87.58;98860.28;2172574;81;21340;-78
2021/08/24 00:07:57;;;;;;;32.53;24.25;;;;;;;16.74;87.87;98854.13;2172858;81;20991;-78
2021/08/24 00:10:57;;;;;;;29.98;22.65;;;;;;;16.73;88.16;98851.07;2172791;81;21000;-78
2021/08/24 00:13:58;;;;;;;25.48;21.25;;;;;;;16.70;88.09;98850.67;2172621;81;21032;-78
2021/08/24 00:16:58;;;;;;;24.85;21.50;;;;;;;16.69;88.58;98853.32;2172819;81;21298;-78
2021/08/24 00:19:59;;;;;;;23.12;20.72;;;;;;;16.63;89.19;98851.59;2172731;81;20993;-78
2021/08/24 00:22:59;;;;;;;23.73;21.35;;;;;;;16.63;89.19;98851.59;2172659;81;20965;-78
2021/08/24 00:26:00;;;;;;;23.10;20.68;;;;;;;16.59;89.59;98856.92;2172734;81;20937;-78
2021/08/24 00:29:00;;;;;;;27.87;21.73;;;;;;;16.58;89.36;98856.50;2172429;81;21347;-78
2021/08/24 00:32:01;;;;;;;24.35;21.20;;;;;;;16.47;89.45;98860.13;2172725;81;21012;-78
2021/08/24 00:35:01;;;;;;;21.97;19.73;;;;;;;16.47;89.45;98860.13;2173109;81;20902;-79
2021/08/24 00:38:02;;;;;;;27.20;21.27;;;;;;;16.45;89.60;98857.92;2172953;81;20957;-78
2021/08/24 00:41:02;;;;;;;21.52;19.32;;;;;;;16.44;89.58;98854.87;2172856;81;20957;-79
2021/08/24 00:44:03;;;;;;;23.32;18.12;;;;;;;16.38;89.95;98849.67;2172618;81;21383;-78
2021/08/24 00:47:04;;;;;;;17.05;15.08;;;;;;;16.34;89.53;98851.91;2172895;81;20953;-77
2021/08/24 00:50:04;;;;;;;14.35;12.95;;;;;;;16.29;89.83;98858.99;2172784;81;20972;-79
2021/08/24 00:53:05;;;;;;;12.80;11.50;;;;;;;16.25;89.37;98863.42;2172108;81;21010;-79
2021/08/24 00:56:07;;;;;;;10.72;9.75;;;;;;;16.25;89.37;98871.32;2164756;81;21398;-77
2021/08/24 00:59:08;;;;;;;13.20;10.25;;;;;;;16.27;89.13;98871.75;2189147;81;20980;-78
2021/08/24 01:02:08;;;;;;;440.47;366.73;;;;;;;16.28;88.94;98873.49;2189245;81;21316;-81
2021/08/24 01:05:09;;;;;;;196.35;165.28;;;;;;;16.67;93.22;98877.50;2189395;81;20924;-82
2021/08/24 01:08:10;;;;;;;34.10;30.55;;;;;;;17.50;90.30;98868.45;2188940;81;20976;-78
2021/08/24 01:11:10;;;;;;;13.78;12.47;;;;;;;17.55;86.76;98863.55;2189102;81;21426;-78
2021/08/24 01:14:10;;;;;;;7.83;7.12;;;;;;;17.26;85.74;98866.16;2189319;81;20983;-77
2021/08/24 01:17:11;;;;;;;8.35;6.55;;;;;;;16.98;85.69;98856.45;2189256;81;20937;-77
2021/08/24 01:20:11;;;;;;;8.60;6.45;;;;;;;16.77;86.13;98859.37;2189253;81;21390;-78
2021/08/24 01:23:12;;;;;;;8.40;6.70;;;;;;;16.62;86.56;98864.80;2188935;81;20987;-78
2021/08/24 01:26:13;;;;;;;6.72;6.22;;;;;;;16.46;87.00;98859.67;2188431;81;20995;-78
2021/08/24 01:29:13;;;;;;;7.80;7.00;;;;;;;16.26;87.77;98847.17;2189200;81;20952;-78
2021/08/24 01:32:14;;;;;;;16.00;6.55;;;;;;;16.13;87.89;98853.45;2189731;81;21047;-79
2021/08/24 01:35:18;;;;;;;7.85;6.30;;;;;;;16.01;88.27;98865.43;2189393;81;20980;-78
2021/08/24 01:38:17;;;;;;;10.30;7.03;;;;;;;15.93;88.94;98872.95;2143786;83;20979;-78
2021/08/24 01:41:18;;;;;;;15.25;7.97;;;;;;;15.85;88.59;98877.86;2144481;83;20916;-78
2021/08/24 01:44:19;;;;;;;13.48;9.10;;;;;;;15.75;88.68;98877.51;2144154;83;21007;-78
2021/08/24 01:47:19;;;;;;;27.10;12.68;;;;;;;15.66;88.80;98878.45;2144537;83;21355;-79
2021/08/24 01:50:20;;;;;;;11.33;10.20;;;;;;;15.78;89.75;98881.44;2122040;84;20969;-78
2021/08/24 01:53:20;;;;;;;18.45;9.18;;;;;;;15.77;89.18;98877.92;2121949;84;20966;-78
2021/08/24 01:56:21;;;;;;;20.10;9.18;;;;;;;15.64;88.36;98880.23;2118275;84;20969;-78
2021/08/24 01:59:21;;;;;;;15.65;8.20;;;;;;;15.53;88.92;98887.27;2111095;84;21012;-78
2021/08/24 02:02:22;;;;;;;13.32;9.58;;;;;;;15.42;88.82;98880.77;2127525;83;20984;-78
2021/08/24 02:05:22;;;;;;;13.78;9.70;;;;;;;15.34;89.21;98879.95;2127963;83;21383;-80
2021/08/24 02:08:23;;;;;;;21.02;9.60;;;;;;;15.25;89.83;98880.87;2127915;83;20988;-78
2021/08/24 02:11:23;;;;;;;26.70;9.58;;;;;;;15.15;89.69;98875.24;2126995;84;21055;-78
2021/08/24 02:14:24;;;;;;;23.40;9.75;;;;;;;15.08;90.42;98876.61;2128039;84;20976;-79
2021/08/24 02:17:24;;;;;;;19.20;9.38;;;;;;;15.02;90.89;98870.06;2128300;83;21024;-78
2021/08/24 02:20:25;;;;;;;9.30;8.50;;;;;;;14.99;90.46;98873.59;2127956;83;21383;-78
2021/08/24 02:23:25;;;;;;;11.38;8.98;;;;;;;14.95;90.75;98874.05;2128006;84;20953;-79
2021/08/24 02:26:26;;;;;;;9.43;8.60;;;;;;;14.93;90.25;98870.98;2127662;84;20996;-78
2021/08/24 02:29:26;;;;;;;14.10;9.58;;;;;;;14.87;90.31;98873.20;2127906;84;20985;-79
2021/08/24 02:32:27;;;;;;;10.85;8.70;;;;;;;14.87;90.31;98873.20;2127801;83;20960;-79
2021/08/24 02:35:29;;;;;;;10.65;8.65;;;;;;;14.84;90.24;98877.61;2127999;83;20958;-79
2021/08/24 02:38:29;;;;;;;10.75;9.75;;;;;;;14.96;90.36;98878.86;2127892;84;21427;-79
2021/08/24 02:41:30;;;;;;;152.75;126.85;;;;;;;15.09;90.52;98873.97;2128034;84;20993;-79
2021/08/24 02:44:30;;;;;;;10.03;8.78;;;;;;;15.78;93.29;98870.46;2127915;84;20956;-77
2021/08/24 02:47:31;;;;;;;10.05;9.03;;;;;;;16.14;88.61;98874.51;2127899;83;20985;-77
2021/08/24 02:50:31;;;;;;;8.30;7.60;;;;;;;16.05;88.06;98871.97;2127712;84;21377;-77
2021/08/24 02:53:32;;;;;;;16.05;10.78;;;;;;;15.82;87.34;98873.94;2127489;84;21331;-77
2021/08/24 02:56:32;;;;;;;8.50;7.50;;;;;;;15.82;87.34;98873.94;2128947;83;20972;-77
2021/08/24 02:59:33;;;;;;;7.12;6.42;;;;;;;15.66;86.22;98875.83;2134693;83;21012;-78
2021/08/24 03:02:34;;;;;;;6.22;5.35;;;;;;;15.39;86.32;98880.78;2134320;83;20988;-77
2021/08/24 03:05:34;;;;;;;8.88;6.10;;;;;;;15.22;86.89;98882.21;2133893;83;20940;-78
2021/08/24 03:08:35;;;;;;;6.45;5.85;;;;;;;15.12;87.24;98880.52;2134972;83;21340;-77
2021/08/24 03:11:35;;;;;;;8.75;6.00;;;;;;;15.02;88.23;98880.58;2134463;83;20969;-78
2021/08/24 03:14:36;;;;;;;5.90;5.30;;;;;;;14.90;88.01;98876.27;2134713;83;21036;-77
2021/08/24 03:17:36;;;;;;;5.80;5.40;;;;;;;14.85;87.96;98872.78;2134678;83;20972;-77
2021/08/24 03:20:37;;;;;;;5.20;4.70;;;;;;;14.78;88.29;98872.37;2134288;83;20992;-78
2021/08/24 03:23:37;;;;;;;6.62;5.33;;;;;;;14.71;88.35;98871.50;2134878;83;21422;-78
2021/08/24 03:26:38;;;;;;;6.28;5.08;;;;;;;14.71;88.63;98882.45;2134949;83;20984;-78
2021/08/24 03:29:38;;;;;;;6.15;4.45;;;;;;;14.69;88.90;98885.52;2134674;83;20984;-78
2021/08/24 03:32:39;;;;;;;7.60;5.05;;;;;;;14.68;88.75;98882.46;2134448;83;20964;-77
2021/08/24 03:35:39;;;;;;;6.20;5.12;;;;;;;14.66;88.73;98887.28;2134441;83;21051;-78
2021/08/24 03:38:40;;;;;;;5.08;4.58;;;;;;;14.65;88.88;98885.53;2134177;83;21440;-78
2021/08/24 03:41:40;;;;;;;5.22;3.90;;;;;;;14.65;88.72;98880.72;2133402;83;20980;-78
2021/08/24 03:44:43;;;;;;;4.45;4.05;;;;;;;14.62;88.97;98876.35;2133866;83;20964;-79
2021/08/24 03:47:43;;;;;;;4.87;3.50;;;;;;;14.60;89.19;98878.11;2134049;83;21443;-79
2021/08/24 03:50:44;;;;;;;6.28;3.60;;;;;;;14.54;89.27;98884.70;2133225;83;20941;-77
2021/08/24 03:53:44;;;;;;;4.10;3.17;;;;;;;14.50;89.65;98888.22;2133582;83;21358;-79
2021/08/24 03:56:45;;;;;;;3.83;3.20;;;;;;;14.50;89.47;98888.66;2132737;83;21381;-78
2021/08/24 03:59:46;;;;;;;2.98;2.70;;;;;;;14.49;89.36;98894.79;2126818;83;20965;-78
2021/08/24 04:02:46;;;;;;;5.17;2.80;;;;;;;14.48;89.20;98889.98;2126511;84;21008;-78
2021/08/24 04:05:47;;;;;;;2.90;2.70;;;;;;;14.50;89.08;98892.59;2126348;83;20969;-78
2021/08/24 04:08:47;;;;;;;3.00;2.80;;;;;;;14.49;89.15;98892.16;2126830;83;20984;-78
2021/08/24 04:11:48;;;;;;;2.92;2.50;;;;;;;14.49;89.04;98890.41;2126487;84;21012;-78
2021/08/24 04:14:48;;;;;;;4.22;2.70;;;;;;;14.46;89.15;98890.42;2127339;83;21371;-77
2021/08/24 04:17:49;;;;;;;5.42;2.83;;;;;;;14.48;89.40;98892.59;2126939;84;20968;-78
2021/08/24 04:20:49;;;;;;;3.22;2.72;;;;;;;14.48;89.38;98901.80;2126541;83;21028;-78
2021/08/24 04:23:50;;;;;;;2.67;2.30;;;;;;;14.49;88.86;98906.61;2126180;84;20953;-78
2021/08/24 04:26:50;;;;;;;3.62;2.47;;;;;;;14.48;88.93;98903.11;2126313;84;20984;-78
2021/08/24 04:29:51;;;;;;;2.45;2.15;;;;;;;14.49;89.09;98914.48;2126414;83;21395;-78
2021/08/24 04:32:51;;;;;;;5.03;1.98;;;;;;;14.46;88.68;98921.94;2126248;83;20976;-78
2021/08/24 04:35:52;;;;;;;2.70;2.37;;;;;;;14.47;88.56;98921.05;2126137;83;20974;-78
2021/08/24 04:38:52;;;;;;;3.08;2.00;;;;;;;14.45;88.58;98918.87;2125612;83;20964;-79
2021/08/24 04:41:53;;;;;;;2.08;1.92;;;;;;;14.46;88.29;98920.63;2125473;83;20964;-78
2021/08/24 04:44:53;;;;;;;2.40;1.80;;;;;;;14.47;88.36;98919.74;2125553;84;20961;-78
2021/08/24 04:47:54;;;;;;;5.60;1.87;;;;;;;14.47;88.31;98929.38;2126400;83;21367;-79
2021/08/24 04:50:55;;;;;;;3.65;2.33;;;;;;;14.44;88.41;98922.38;2126345;83;21424;-78
2021/08/24 04:53:55;;;;;;;7.00;1.60;;;;;;;14.42;88.19;98932.02;2127299;84;20976;-77
2021/08/24 04:56:56;;;;;;;1.87;1.52;;;;;;;14.41;88.49;98940.73;2128269;83;21368;-77
2021/08/24 04:59:56;;;;;;;2.12;1.50;;;;;;;14.41;88.49;98938.55;2134082;83;20984;-78
2021/08/24 05:02:57;;;;;;;2.37;1.92;;;;;;;14.39;88.11;98934.61;2133515;83;21016;-78
2021/08/24 05:05:57;;;;;;;7.17;2.02;;;;;;;14.39;88.13;98933.30;2132922;83;20996;-80
2021/08/24 05:08:58;;;;;;;2.27;1.82;;;;;;;14.40;88.00;98942.92;2133136;83;20972;-79
2021/08/24 05:11:58;;;;;;;4.72;1.85;;;;;;;14.89;90.04;98936.28;2133314;83;21392;-80
2021/08/24 05:14:59;;;;;;;2.35;1.75;;;;;;;15.02;86.46;98941.91;2133645;83;21404;-82
2021/08/24 05:17:59;;;;;;;1.90;1.80;;;;;;;14.78;87.20;98951.21;2132936;83;20984;-78
2021/08/24 05:21:00;;;;;;;2.33;2.12;;;;;;;14.65;86.75;98963.03;2132895;83;21005;-80
2021/08/24 05:24:00;;;;;;;1.92;1.72;;;;;;;14.69;87.68;98965.22;2132983;83;20991;-78
2021/08/24 05:27:01;;;;;;;4.60;2.22;;;;;;;14.73;86.89;98970.90;2133081;83;20961;-79
2021/08/24 05:30:01;;;;;;;3.47;2.02;;;;;;;14.78;86.39;98963.03;2133442;83;21059;-79
2021/08/24 05:33:02;;;;;;;2.83;1.98;;;;;;;14.81;86.92;98964.34;2134142;83;20972;-79
2021/08/24 05:36:02;;;;;;;4.97;2.25;;;;;;;14.65;86.10;98981.87;2134513;83;21007;-78
2021/08/24 05:39:03;;;;;;;3.77;2.10;;;;;;;14.59;87.10;98981.44;2134516;83;21419;-78
2021/08/24 05:42:04;;;;;;;5.03;2.42;;;;;;;14.56;86.34;98988.45;2134536;83;21360;-80
2021/08/24 05:45:04;;;;;;;3.52;2.30;;;;;;;14.38;86.84;98991.08;2133855;83;20988;-78
2021/08/24 05:48:05;;;;;;;2.37;2.20;;;;;;;14.61;88.15;98992.82;2133305;83;20960;-79
2021/08/24 05:51:05;;;;;;;2.60;2.40;;;;;;;14.72;87.18;98995.86;2133384;83;20988;-78
2021/08/24 05:54:06;;;;;;;9.25;2.80;;;;;;;14.74;85.71;98997.64;2132926;83;20965;-78
2021/08/24 05:57:06;;;;;;;2.35;2.25;;;;;;;14.75;85.56;99002.45;2131911;83;21016;-78
2021/08/24 06:00:07;;;;;;;3.50;2.95;;;;;;;14.49;85.20;99015.61;2125685;84;21035;-78
2021/08/24 06:03:07;;;;;;;2.80;2.60;;;;;;;14.35;85.79;99020.84;2126183;83;21072;-79
2021/08/24 06:06:08;;;;;;;5.90;5.30;;;;;;;14.26;85.81;99024.78;2126200;84;21016;-78
2021/08/24 06:09:08;;;;;;;7.65;4.10;;;;;;;14.65;88.16;99023.46;2127053;84;20972;-78
2021/08/24 06:12:09;;;;;;;3.47;2.95;;;;;;;15.10;84.82;99045.73;2127230;84;21020;-80
2021/08/24 06:15:09;;;;;;;5.20;3.33;;;;;;;14.72;84.04;99032.65;2126555;83;20981;-78
2021/08/24 06:18:10;;;;;;;4.62;3.20;;;;;;;14.55;85.07;99046.69;2126981;84;21006;-79
2021/08/24 06:21:10;;;;;;;4.05;3.10;;;;;;;14.48;84.64;99053.25;2126473;84;20960;-79
2021/08/24 06:24:11;;;;;;;4.35;3.42;;;;;;;14.26;86.32;99054.97;2126254;84;20964;-79
2021/08/24 06:27:12;;;;;;;5.25;3.77;;;;;;;14.27;86.54;99064.16;2127403;83;21372;-81
2021/08/24 06:30:12;;;;;;;4.08;3.60;;;;;;;14.17;86.03;99072.91;2127109;83;21080;-79
2021/08/24 06:33:13;;;;;;;3.70;3.40;;;;;;;13.96;85.87;99076.81;2126865;83;20952;-77
2021/08/24 06:36:14;;;;;;;3.83;3.47;;;;;;;13.97;87.36;99078.13;2126622;84;21004;-79
2021/08/24 06:39:15;;;;;;;5.53;3.55;;;;;;;13.84;86.79;99084.63;2126686;83;21008;-81
2021/08/24 06:42:15;;;;;;;4.40;4.05;;;;;;;13.74;87.35;99088.97;2126481;84;20992;-80
2021/08/24 06:45:16;;;;;;;4.70;3.90;;;;;;;13.66;87.47;99096.81;2125967;83;21407;-80
2021/08/24 06:48:17;;;;;;;4.92;3.90;;;;;;;13.54;88.12;99093.27;2126727;83;21068;-79
2021/08/24 06:51:17;;;;;;;7.40;3.77;;;;;;;13.47;87.99;99092.81;2126950;83;20965;-78
2021/08/24 06:54:18;;;;;;;4.33;3.95;;;;;;;13.75;89.11;99093.78;2126644;83;21416;-78
2021/08/24 06:57:18;;;;;;;3.60;3.30;;;;;;;13.94;88.35;99103.48;2126943;83;21048;-78
2021/08/24 07:00:19;;;;;;;4.45;3.05;;;;;;;14.00;86.31;99110.94;2126247;84;21008;-79
2021/08/24 07:03:19;;;;;;;6.42;5.83;;;;;;;13.87;86.39;99114.41;2127229;84;21024;-78
2021/08/24 07:06:20;;;;;;;3.47;2.80;;;;;;;13.89;87.37;99107.84;2127067;83;21333;-78
2021/08/24 07:09:20;;;;;;;3.87;3.00;;;;;;;13.88;85.81;99106.09;2127378;83;21022;-80
2021/08/24 07:12:21;;;;;;;5.83;3.42;;;;;;;13.97;86.98;99114.87;2127174;84;20976;-80
2021/08/24 07:15:21;;;;;;;7.42;4.28;;;;;;;14.13;86.29;99116.22;2127503;84;20984;-80
2021/08/24 07:18:22;;;;;;;5.28;3.42;;;;;;;14.30;86.64;99115.37;2127663;84;21032;-77
2021/08/24 07:21:22;;;;;;;4.70;3.27;;;;;;;14.29;85.71;99121.93;2126672;84;21348;-79
2021/08/24 07:24:23;;;;;;;3.50;3.20;;;;;;;14.22;85.00;99128.05;2126983;84;21408;-78
2021/08/24 07:27:24;;;;;;;4.72;3.67;;;;;;;14.10;85.90;99126.27;2126854;84;21020;-79
2021/08/24 07:30:24;;;;;;;6.65;3.55;;;;;;;14.36;86.94;99132.87;2126903;84;21056;-78
2021/08/24 07:33:25;;;;;;;3.80;3.50;;;;;;;14.44;85.92;99135.55;2126031;84;21000;-78
2021/08/24 07:36:31;;;;;;;4.90;4.50;;;;;;;14.15;84.85;99140.28;2125958;84;21000;-77
2021/08/24 07:39:32;;;;;;;5.85;4.85;;;;;;;13.89;85.78;99140.66;2125680;84;20973;-78
2021/08/24 07:42:32;;;;;;;6.87;5.42;;;;;;;13.67;86.69;99144.47;2126267;84;20968;-77
2021/08/24 07:45:33;;;;;;;6.15;5.53;;;;;;;13.54;87.49;99149.23;2126204;83;20976;-79
2021/08/24 07:48:34;;;;;;;8.05;5.35;;;;;;;13.87;87.93;99151.55;2127034;84;20969;-78
2021/08/24 07:51:34;;;;;;;5.50;5.00;;;;;;;13.77;87.01;99153.26;2126948;84;21001;-79
2021/08/24 07:54:35;;;;;;;7.53;5.62;;;;;;;13.70;87.61;99151.48;2126601;84;21343;-78
2021/08/24 07:57:35;;;;;;;6.20;5.37;;;;;;;13.70;87.93;99153.67;2126677;83;21011;-79
2021/08/24 08:00:36;;;;;;;6.12;5.50;;;;;;;13.73;87.90;99151.49;2126379;83;21040;-78
2021/08/24 08:03:36;;;;;;;6.35;5.70;;;;;;;13.80;88.07;99160.27;2126567;84;20993;-79
2021/08/24 08:06:39;;;;;;;8.18;5.50;;;;;;;13.80;88.13;99162.45;2126924;84;21036;-78
2021/08/24 08:09:39;;;;;;;6.95;5.62;;;;;;;13.83;88.07;99170.34;2127109;83;21091;-78
2021/08/24 08:12:40;;;;;;;8.03;6.25;;;;;;;13.87;88.18;99177.38;2127499;83;20968;-80
2021/08/24 08:15:40;;;;;;;6.20;5.60;;;;;;;13.93;88.30;99176.09;2127126;83;21008;-79
2021/08/24 08:18:41;;;;;;;7.40;6.10;;;;;;;13.99;88.13;99174.80;2126884;84;21032;-79
2021/08/24 08:21:41;;;;;;;6.25;5.65;;;;;;;14.02;88.53;99180.06;2127459;84;20972;-79
2021/08/24 08:24:42;;;;;;;8.48;5.75;;;;;;;14.01;88.35;99179.63;2127203;84;21348;-79
2021/08/24 08:27:42;;;;;;;6.47;5.92;;;;;;;14.09;88.26;99182.70;2127488;83;20993;-79
2021/08/24 08:30:43;;;;;;;7.45;5.83;;;;;;;14.09;88.32;99184.89;2127155;84;21044;-79
2021/08/24 08:33:43;;;;;;;6.03;5.00;;;;;;;14.11;88.49;99191.02;2127012;83;21000;-79
2021/08/24 08:36:45;;;;;;;6.62;5.50;;;;;;;14.13;88.34;99187.09;2126688;84;21348;-78
2021/08/24 08:39:46;;;;;;;6.05;5.45;;;;;;;14.18;88.22;99190.17;2126753;84;21004;-78
2021/08/24 08:42:46;;;;;;;8.00;5.83;;;;;;;14.18;88.31;99191.92;2126398;84;21348;-78
2021/08/24 08:45:47;;;;;;;5.03;4.53;;;;;;;14.17;88.00;99191.48;2127237;83;20996;-79
2021/08/24 08:48:47;;;;;;;6.22;5.58;;;;;;;14.16;88.12;99196.29;2127989;84;20996;-79
2021/08/24 08:51:48;;;;;;;8.48;6.03;;;;;;;14.08;88.32;99203.27;2127129;83;21111;-81
2021/08/24 08:54:48;;;;;;;5.67;4.90;;;;;;;14.09;88.48;99205.02;2127710;83;21324;-80
2021/08/24 08:57:49;;;;;;;5.25;4.58;;;;;;;14.12;88.06;99210.28;2127118;83;21364;-80
2021/08/24 09:00:49;;;;;;;5.10;4.60;;;;;;;14.12;87.50;99214.22;2127029;84;21072;-80
2021/08/24 09:03:50;;;;;;;5.72;3.90;;;;;;;14.08;87.61;99220.33;2126690;83;21036;-78
2021/08/24 09:06:52;;;;;;;9.70;4.03;;;;;;;14.04;87.45;99222.06;2126575;83;20963;-79
2021/08/24 09:09:55;;;;;;;5.83;4.20;;;;;;;13.98;87.36;99225.98;2098509;84;21333;-79
2021/08/24 09:12:56;;;;;;;4.97;4.47;;;;;;;13.94;87.73;99222.46;2126733;84;21000;-78
2021/08/24 09:15:57;;;;;;;5.97;4.40;;;;;;;13.92;87.77;99224.20;2126798;83;21479;-79
2021/08/24 09:18:57;;;;;;;7.72;4.70;;;;;;;13.93;87.73;99223.77;2127170;83;21387;-79
2021/08/24 09:21:58;;;;;;;4.42;4.03;;;;;;;13.92;87.77;99231.20;2126932;83;20988;-79
2021/08/24 09:24:58;;;;;;;7.10;4.53;;;;;;;13.93;87.70;99233.83;2126940;84;21020;-78
2021/08/24 09:27:59;;;;;;;9.98;4.92;;;;;;;14.00;87.91;99234.30;2126828;84;20992;-79
2021/08/24 09:30:59;;;;;;;8.73;4.83;;;;;;;14.09;87.78;99232.14;2126536;84;21040;-78
2021/08/24 09:34:00;;;;;;;5.30;4.60;;;;;;;14.16;87.82;99229.11;2126772;83;20965;-79
2021/08/24 09:37:00;;;;;;;6.12;5.12;;;;;;;14.12;87.75;99233.47;2126500;84;21044;-79
2021/08/24 09:40:01;;;;;;;9.80;4.90;;;;;;;14.10;87.75;99234.33;2127564;84;20996;-79
2021/08/24 09:43:01;;;;;;;5.42;4.95;;;;;;;14.10;87.96;99233.02;2128014;84;21001;-79
2021/08/24 09:46:02;;;;;;;6.30;5.12;;;;;;;14.12;87.77;99235.22;2127863;84;21382;-79
2021/08/24 09:49:04;;;;;;;6.83;5.75;;;;;;;14.14;87.92;99238.29;2127696;84;21411;-78
2021/08/24 09:52:04;;;;;;;5.72;5.22;;;;;;;14.16;87.95;99239.17;2127363;83;20995;-78
2021/08/24 09:55:05;;;;;;;6.17;5.58;;;;;;;14.17;87.95;99240.05;2128192;83;21420;-80
2021/08/24 09:58:05;;;;;;;6.55;5.83;;;;;;;14.24;88.03;99249.70;2127511;84;21025;-76
2021/08/24 10:01:06;;;;;;;6.78;6.03;;;;;;;14.35;88.33;99244.92;2126627;83;21012;-77
2021/08/24 10:04:06;;;;;;;7.03;6.42;;;;;;;14.40;88.61;99257.19;2126631;84;20976;-78
2021/08/24 10:07:07;;;;;;;7.30;6.17;;;;;;;14.38;88.60;99261.13;2126612;83;20968;-78
2021/08/24 10:10:08;;;;;;;7.28;6.42;;;;;;;14.33;88.55;99265.05;2126072;83;21000;-77
2021/08/24 10:13:08;;;;;;;7.20;6.50;;;;;;;14.34;88.70;99265.93;2126153;83;20953;-76
2021/08/24 10:16:09;;;;;;;7.55;6.72;;;;;;;14.25;89.60;99273.34;2126915;84;21328;-79
2021/08/24 10:19:09;;;;;;;10.10;6.87;;;;;;;14.25;89.60;99273.34;2126828;84;21478;-78
2021/08/24 10:22:10;;;;;;;10.10;7.12;;;;;;;14.24;89.09;99275.95;2126719;83;20956;-78
2021/08/24 10:25:10;;;;;;;7.47;6.78;;;;;;;14.28;89.25;99285.60;2126674;83;20973;-78
2021/08/24 10:28:11;;;;;;;10.05;7.20;;;;;;;14.29;89.42;99282.98;2127290;84;20996;-79
2021/08/24 10:31:11;;;;;;;7.78;6.40;;;;;;;14.32;89.37;99292.63;2127723;84;21476;-78
2021/08/24 10:34:12;;;;;;;7.00;6.30;;;;;;;14.30;89.17;99287.80;2127352;84;20976;-78
2021/08/24 10:37:13;;;;;;;7.40;6.70;;;;;;;14.27;89.01;99283.84;2127682;83;21395;-78
2021/08/24 10:40:14;;;;;;;8.58;6.62;;;;;;;14.26;89.64;99295.22;2127760;84;21051;-78
2021/08/24 10:46:17;;;;;;;6.72;6.10;;;;;;;14.22;89.46;99302.20;2100009;84;21423;-80
2021/08/24 10:49:17;;;;;;;7.83;5.67;;;;;;;14.22;89.78;99303.95;2128131;83;21016;-80
2021/08/24 10:52:18;;;;;;;7.95;6.50;;;;;;;14.20;89.22;99318.39;2127629;83;21403;-78
2021/08/24 10:55:20;;;;;;;10.13;5.97;;;;;;;14.18;89.34;99312.69;2099982;84;20997;-79
2021/08/24 10:58:21;;;;;;;11.12;5.62;;;;;;;14.17;89.23;99326.25;2128384;83;21007;-79
2021/08/24 11:01:21;;;;;;;6.33;5.65;;;;;;;14.14;89.34;99330.17;2127343;84;21012;-78
2021/08/24 11:04:22;;;;;;;5.80;5.28;;;;;;;14.06;89.58;99331.00;2126544;84;21004;-78
2021/08/24 11:07:22;;;;;;;6.28;5.28;;;;;;;14.05;89.39;99334.06;2126128;83;20961;-79
2021/08/24 11:10:23;;;;;;;5.70;5.20;;;;;;;14.03;89.56;99330.55;2126175;83;21020;-79
2021/08/24 11:13:23;;;;;;;7.40;5.40;;;;;;;14.02;89.55;99334.05;2126492;83;21332;-79
2021/08/24 11:16:24;;;;;;;6.20;5.60;;;;;;;14.02;89.56;99332.30;2127173;83;20949;-80
2021/08/24 11:19:25;;;;;;;6.85;5.42;;;;;;;13.98;89.67;99335.77;2126788;84;21324;-79
2021/08/24 11:22:25;;;;;;;6.58;5.25;;;;;;;13.94;89.37;99339.25;2127773;83;21471;-78
2021/08/24 11:25:26;;;;;;;7.60;5.78;;;;;;;13.85;89.27;99341.78;2127280;83;21021;-81
2021/08/24 11:28:26;;;;;;;7.30;5.40;;;;;;;13.76;89.45;99346.97;2127507;84;20960;-80
2021/08/24 11:31:27;;;;;;;5.90;5.40;;;;;;;13.71;89.33;99346.05;2127293;83;21391;-79
2021/08/24 11:34:27;;;;;;;6.70;5.53;;;;;;;13.65;89.95;99356.07;2127304;84;20969;-79
2021/08/24 11:37:37;;;;;;;5.70;5.15;;;;;;;13.64;89.83;99357.38;2127261;83;20999;-80
2021/08/24 11:40:37;;;;;;;8.63;5.80;;;;;;;13.60;89.92;99355.16;2127481;83;20984;-81
2021/08/24 11:43:38;;;;;;;8.35;6.00;;;;;;;13.57;90.20;99360.81;2126785;83;21344;-79
2021/08/24 11:46:39;;;;;;;7.45;5.08;;;;;;;13.55;90.43;99369.10;2126616;84;21011;-78
2021/08/24 11:49:41;;;;;;;8.00;6.12;;;;;;;13.49;90.49;99369.05;2126704;84;21056;-81
2021/08/24 11:52:43;;;;;;;7.72;5.47;;;;;;;13.48;90.81;99372.54;2127293;83;21068;-78
2021/08/24 11:55:44;;;;;;;6.10;5.60;;;;;;;13.47;90.77;99372.09;2127401;83;20995;-79
2021/08/24 11:58:45;;;;;;;6.83;5.25;;;;;;;13.43;90.81;99371.62;2127001;83;21041;-80
2021/08/24 12:01:45;;;;;;;6.40;5.55;;;;;;;13.43;90.85;99379.48;2127016;83;21356;-80
2021/08/24 12:04:48;;;;;;;7.17;4.90;;;;;;;13.42;90.73;99381.23;2127337;84;20976;-80
2021/08/24 12:07:48;;;;;;;7.92;5.37;;;;;;;13.38;90.42;99382.95;2126419;83;20980;-81
2021/08/24 12:10:49;;;;;;;6.05;5.00;;;;;;;13.37;90.70;99392.99;2127825;83;21395;-79
2021/08/24 12:13:49;;;;;;;7.22;5.03;;;;;;;13.39;90.40;99393.00;2127711;83;21025;-80
2021/08/24 12:16:50;;;;;;;5.47;4.97;;;;;;;13.35;90.35;99402.59;2127602;84;20985;-80
2021/08/24 12:19:50;;;;;;;5.37;4.72;;;;;;;13.29;90.34;99405.58;2127758;84;21016;-80
2021/08/24 12:22:51;;;;;;;9.00;5.30;;;;;;;13.22;90.41;99412.50;2127826;84;21039;-79
2021/08/24 12:25:51;;;;;;;8.08;4.75;;;;;;;13.19;90.69;99409.85;2127581;84;20937;-79
2021/08/24 12:28:52;;;;;;;7.15;5.75;;;;;;;13.19;90.86;99411.16;2127556;83;21043;-80
2021/08/24 12:31:53;;;;;;;8.23;5.25;;;;;;;13.14;90.89;99424.62;2126712;84;21375;-79
2021/08/24 12:34:53;;;;;;;5.83;5.08;;;;;;;13.10;90.59;99429.37;2127062;83;21327;-78
2021/08/24 12:37:54;;;;;;;11.30;5.35;;;;;;;13.16;90.53;99439.05;2127265;83;20972;-78
2021/08/24 12:40:56;;;;;;;6.92;4.80;;;;;;;13.24;89.41;99436.12;2126301;84;22108;-80
2021/08/24 12:47:03;;;;;;;6.75;5.58;;;;;;;13.37;89.67;99449.37;2127279;83;21055;-78
2021/08/24 12:50:04;;;;;;;6.45;5.10;;;;;;;13.37;89.26;99448.05;2127100;84;20980;-77
2021/08/24 12:53:04;;;;;;;8.38;5.92;;;;;;;13.38;89.29;99448.94;2127452;83;20952;-78
2021/08/24 12:56:05;;;;;;;10.55;5.42;;;;;;;13.40;89.31;99452.45;2127400;84;20977;-78
2021/08/24 12:59:05;;;;;;;8.28;5.67;;;;;;;13.38;89.28;99453.75;2128754;83;21388;-77
2021/08/24 13:02:06;;;;;;;10.55;6.10;;;;;;;13.41;89.41;99448.97;2134094;83;21403;-78
2021/08/24 13:05:06;;;;;;;13.03;5.28;;;;;;;13.44;89.33;99456.86;2133771;83;20980;-79
2021/08/24 13:08:11;;;;;;;10.70;5.75;;;;;;;13.47;89.40;99462.57;2132937;83;21008;-78
2021/08/24 13:11:11;;;;;;;6.35;5.40;;;;;;;13.47;89.35;99462.14;2133699;83;20964;-79
2021/08/24 13:14:12;;;;;;;8.75;4.87;;;;;;;13.44;88.87;99466.05;2133646;83;20960;-78
2021/08/24 13:17:12;;;;;;;6.33;5.40;;;;;;;13.48;88.69;99460.39;2132997;83;20960;-79
2021/08/24 13:20:13;;;;;;;10.30;6.30;;;;;;;13.47;88.60;99467.81;2133282;83;20937;-78
2021/08/24 13:23:13;;;;;;;8.88;5.00;;;;;;;13.49;88.16;99471.33;2134258;83;21320;-78
2021/08/24 13:26:14;;;;;;;7.62;4.53;;;;;;;13.54;88.38;99474.45;2134167;83;21348;-78
2021/08/24 13:29:14;;;;;;;8.58;5.22;;;;;;;13.57;88.56;99478.41;2133663;83;20996;-78
2021/08/24 13:32:15;;;;;;;8.18;5.60;;;;;;;13.63;87.90;99475.84;2133898;83;21001;-79
2021/08/24 13:35:16;;;;;;;10.63;6.50;;;;;;;13.70;87.83;99476.35;2133989;83;20940;-79
2021/08/24 13:38:16;;;;;;;9.40;6.60;;;;;;;13.76;87.70;99475.53;2133774;83;20975;-79
2021/08/24 13:41:19;;;;;;;6.42;4.65;;;;;;;13.76;86.84;99483.41;2133735;83;20984;-79
2021/08/24 13:44:19;;;;;;;7.03;4.28;;;;;;;13.75;86.79;99484.70;2133865;83;20976;-78
2021/08/24 13:47:19;;;;;;;5.25;4.25;;;;;;;13.71;86.61;99485.11;2133405;83;20969;-77
2021/08/24 13:50:20;;;;;;;4.72;4.00;;;;;;;13.72;87.00;99490.80;2134234;83;21059;-77
2021/08/24 13:53:20;;;;;;;9.45;4.30;;;;;;;13.73;87.15;99490.37;2133730;83;20976;-78
2021/08/24 13:56:21;;;;;;;9.08;4.10;;;;;;;13.76;86.89;99487.34;2134390;83;21024;-78
2021/08/24 13:59:21;;;;;;;6.60;4.00;;;;;;;13.83;87.08;99493.52;2134591;83;21047;-78
2021/08/24 14:02:22;;;;;;;5.87;3.87;;;;;;;13.87;86.75;99490.06;2133694;83;21340;-77
2021/08/24 14:05:22;;;;;;;7.00;4.03;;;;;;;13.91;86.14;99486.19;2133582;83;20921;-80
2021/08/24 14:08:23;;;;;;;5.42;3.58;;;;;;;13.91;85.74;99495.38;2133514;83;21010;-80
2021/08/24 14:11:23;;;;;;;5.37;3.95;;;;;;;13.94;85.82;99489.28;2134121;83;21008;-79
2021/08/24 14:14:24;;;;;;;10.35;3.75;;;;;;;13.92;85.43;99491.89;2133950;83;21058;-79